Decoded Metar for KLUL (LAUREL in MS, USA) (IATA:LUL) | Meteo·Mobile Aviation Weather
aviador You're here:

KLUL Decoded Metar

LAUREL in MS, USA
Report Time2018-10-23 11:15:00
UTC Time2018-10-23 11:32:57
Flight Rules vfr VFR
WindCalm
Visibility9999 m
Phenomena:N/A
Clouds:N/A
CeilingNone
Temp14°C (ISA -0)
Dew Point14°C (100% RH)
QNH1022 hPa
Density Alt161 ft
Elevation299 ft
Report Wrong Elevation
Raw Report
KLUL 231115Z AUTO 00000KT 10SM CLR 14/14 A3017 RMK AO2
T01370137=

Extra information for KLUL:More info

Metar Taf Metar & Taf Last 4 Metars F.Rules Stats Wind Profile Meteogram Temp Stats Airport Information Weather charts Add Link Nearby VenuesMetar ALERT Operation Metar Decoded Social comments

AIRNAV info for KLUL